Ora Direzione Vento Velocita' Vento Media Vento Raffica Max. Temperatura Wind Chill Pioggia Pressione
10:50:30.0307 °(NW)16.2 Kts16.8 Kts18.9 Kts19.2 °C18.63 °C0.0 mm1012.8 Hpa
10:29:50.0263 °(W)7.8 Kts8.6 Kts15.9 Kts18.6 °C18.6 °C0.0 mm1012.2 Hpa
10:10:14.0263 °(W)13.2 Kts9.36 Kts14.1 Kts18.7 °C18.18 °C0.0 mm1010.6 Hpa
09:50:23.0269 °(W)8.6 Kts7.73 Kts11.3 Kts17.3 °C16.88 °C0.0 mm1014.6 Hpa
09:30:25.0249 °(WSW)3.9 Kts3.9 Kts9.2 Kts17.6 °C18.08 °C0.0 mm1012.6 Hpa
09:09:46.0241 °(WSW)3.5 Kts3.0 Kts9.2 Kts16.7 °C17.18 °C0.0 mm1013.1 Hpa
08:50:21.0238 °(WSW)4.2 Kts2.96 Kts9.2 Kts14.6 °C14.55 °C0.0 mm1013.7 Hpa
08:29:54.0247 °(WSW)2.3 Kts1.33 Kts9.2 Kts12.8 °C13.2 °C0.0 mm1014.8 Hpa
08:09:26.0228 °(SW)1.8 Kts1.7 Kts9.2 Kts12.1 °C12.75 °C0.0 mm1013.6 Hpa
07:50:13.0224 °(SW)0.0 Kts0.0 Kts9.2 Kts11.1 °C20.01 °C0.0 mm1014.3 Hpa
07:29:59.0213 °(SSW)0.4 Kts1.3 Kts9.2 Kts10.6 °C12.83 °C0.0 mm1013.6 Hpa
07:09:44.0221 °(SW)4.6 Kts4.7 Kts9.2 Kts10.1 °C9.09 °C0.0 mm1012.1 Hpa
06:49:32.0205 °(SSW)4.7 Kts2.83 Kts9.2 Kts9.8 °C8.74 °C0.0 mm1014.1 Hpa
06:30:29.0213 °(SSW)1.9 Kts3.43 Kts9.2 Kts9.6 °C9.86 °C0.0 mm1015.4 Hpa
06:10:14.0203 °(SSW)1.1 Kts1.56 Kts8.8 Kts9.1 °C10.16 °C0.0 mm1014.3 Hpa
05:50:06.0247 °(WSW)3.6 Kts4.93 Kts8.8 Kts8.6 °C7.8 °C0.0 mm1014.1 Hpa
05:29:58.0310 °(NW)0.4 Kts0.6 Kts8.8 Kts8.8 °C11.02 °C0.0 mm1015.4 Hpa
05:09:55.0244 °(WSW)3.2 Kts3.16 Kts8.8 Kts8.6 °C7.96 °C0.0 mm1014.9 Hpa
04:49:52.0212 °(SSW)1.9 Kts3.06 Kts8.6 Kts8.3 °C8.42 °C0.0 mm1016.4 Hpa
04:29:44.0234 °(SW)5.2 Kts4.33 Kts8.6 Kts7.5 °C5.78 °C0.0 mm1015.6 Hpa